Freeman, SD

3:30 AM CDT on August 22, 2014 (GMT -0500)
KSDFREEM4 | Change Station
CLOSE
Current Station
Personal Weather Station
Location: FREEMAN, SD
Elevation: 1440 ft
Nearby Weather Stations

Elev 1440 ft 43.43 °N, 97.48 °W | Updated 18 seconds ago

Clear
Clear
67.7 °F
Feels Like 67.7 °F
N
6.0
Wind Variable Wind from NNW
Gusts 14.0 mph

Today
High -- | Low -- °F
--% Chance of Precip.
Yesterday
High -- | Low -- °F
Precip. -- in
6:42 AM 8:21 PM
Waning Crescent, 9% visible
Pressure 29.89 in
Visibility 10.0 miles
Clouds Clear
Dew Point 66 °F
Humidity 96%
Rainfall 0.00 in
Snow Depth Not available.
UV 0 out of 12
Pollen 4.20 out of 12
Air Quality Not available.
Flu Activity Not available.
METAR KYKN 220815Z AUTO 00000KT 10SM CLR 21/20 A2989 RMK AO1

More Conditions Fewer Conditions

Pressure 29.89 in
Visibility 10.0 miles
Clouds Clear
Dew Point 66 °F
Humidity 96%
Rainfall 0.00 in
Snow Depth Not available.
UV 0 out of 12
Pollen 4.20 out of 12
Air Quality Not available.
Flu Activity Not available.
METAR KYKN 220815Z AUTO 00000KT 10SM CLR 21/20 A2989 RMK AO1

More Conditions Fewer Conditions

10-Day Weather Forecast

Almanac

Astronomy

Aug. 22, 2014 Rise Set
Actual Time 6:42 AM CDT 8:21 PM CDT
Civil Twilight 6:12 AM CDT 8:51 PM CDT
Nautical Twilight 5:35 AM CDT 9:28 PM CDT
Astronomical Twilight 4:56 AM CDT 10:07 PM CDT
Moon 4:04 AM CDT 6:32 PM CDT
Length of Visible Light 14h 39m
Length of Day
13h 38m
Tomorrow will be 2m 44s shorter.
Waning Crescent, 9% of the Moon is Illuminated
Today
Waning Crescent
Aug 25
New
Sep 2
First Quarter
Sep 8
Full
Sep 15
Last Quarter

Today's Extremes

State Highs State Lows

Community

WunderPhotos

Upload Photos

1,746,144 photos uploaded!

Nearby

Snow Depth

Station Depth Elevation
North Rapid Creek 0 in 6130 ft
Blind Park 0 in 6890 ft

Earthquake Activity

City Distance Mag. Time & Date
No recent earthquake activity has been reported nearby.
Minimum magnitude displayed is 2.5.

Coastal Water Temperatures

Place Temperature
No Stations Reporting

Nearby Weather Stations